Time;durP1;ratioP1;P1;durP2;ratioP2;P2;SDS_P1;SDS_P2;PMS_P1;PMS_P2;Temp;Humidity;BMP_temperature;BMP_pressure;BME280_temperature;BME280_humidity;BME280_pressure;Samples;Min_cycle;Max_cycle;Signal;HPM_P1;HPM_P2
2020/12/18 00:01:30;;;;;;;13.48;4.50;;;6.80;99.90;;;;;;5005855;28;20052;-37
2020/12/18 00:03:57;;;;;;;13.02;6.03;;;6.70;99.90;;;;;;5007447;28;20065;-38
2020/12/18 00:06:24;;;;;;;14.52;5.32;;;6.80;99.90;;;;;;4998120;28;20381;-38
2020/12/18 00:08:50;;;;;;;17.48;5.90;;;6.70;99.90;;;;;;5008532;28;20111;-38
2020/12/18 00:11:26;;;;;;;12.75;5.63;;;6.70;99.90;;;;;;5002862;28;20034;-38
2020/12/18 00:13:52;;;;;;;12.63;6.43;;;6.70;99.90;;;;;;5004328;28;20030;-38
2020/12/18 00:16:19;;;;;;;15.52;6.28;;;6.70;99.90;;;;;;5009757;28;20121;-38
2020/12/18 00:18:45;;;;;;;10.75;6.47;;;6.60;99.90;;;;;;5004860;28;20040;-37
2020/12/18 00:21:21;;;;;;;16.83;7.05;;;6.60;99.90;;;;;;4987397;28;20030;-38
2020/12/18 00:23:47;;;;;;;14.68;5.70;;;6.60;99.90;;;;;;5006983;28;20053;-37
2020/12/18 00:26:14;;;;;;;9.95;4.93;;;6.60;99.90;;;;;;5014779;28;20037;-37
2020/12/18 00:28:40;;;;;;;19.95;7.20;;;6.60;99.90;;;;;;5023283;28;20051;-40
2020/12/18 00:31:06;;;;;;;15.15;6.50;;;6.60;99.90;;;;;;5011522;28;20038;-38
2020/12/18 00:33:31;;;;;;;21.88;6.80;;;6.50;99.90;;;;;;5028814;28;20171;-38
2020/12/18 00:35:57;;;;;;;16.95;6.63;;;6.60;99.90;;;;;;5025792;28;20022;-37
2020/12/18 00:38:23;;;;;;;15.00;6.47;;;6.50;99.90;;;;;;5028837;28;20541;-37
2020/12/18 00:40:48;;;;;;;19.30;6.68;;;6.50;99.90;;;;;;5015407;28;20036;-37
2020/12/18 00:43:14;;;;;;;16.33;5.07;;;6.50;99.90;;;;;;5031532;28;20481;-37
2020/12/18 00:45:41;;;;;;;16.70;5.78;;;6.50;99.90;;;;;;5026950;28;20489;-38
2020/12/18 00:48:07;;;;;;;11.50;6.45;;;6.50;99.90;;;;;;5030509;28;20030;-48
2020/12/18 00:50:33;;;;;;;15.18;7.05;;;6.50;99.90;;;;;;5031129;28;20036;-48
2020/12/18 00:52:59;;;;;;;13.88;6.05;;;6.50;99.90;;;;;;5033645;28;20378;-47
2020/12/18 00:55:24;;;;;;;13.55;5.82;;;6.50;99.90;;;;;;5030716;28;20033;-48
2020/12/18 00:57:50;;;;;;;23.35;8.52;;;6.40;99.90;;;;;;5023916;28;20033;-48
2020/12/18 01:00:16;;;;;;;16.10;6.65;;;6.40;99.90;;;;;;5031369;28;20496;-48
2020/12/18 01:02:42;;;;;;;16.02;7.30;;;6.40;99.90;;;;;;5021901;28;20034;-48
2020/12/18 01:05:08;;;;;;;17.63;5.95;;;6.50;99.90;;;;;;5031982;28;20670;-48
2020/12/18 01:07:33;;;;;;;15.40;7.53;;;6.40;99.90;;;;;;5032728;28;20029;-48
2020/12/18 01:09:59;;;;;;;16.13;7.47;;;6.40;99.90;;;;;;5032514;28;20037;-48
2020/12/18 01:12:24;;;;;;;17.63;7.05;;;6.50;99.90;;;;;;5015101;28;20040;-47
2020/12/18 01:14:50;;;;;;;15.93;7.65;;;6.50;99.90;;;;;;5039626;28;20451;-47
2020/12/18 01:17:16;;;;;;;17.85;6.95;;;6.40;99.90;;;;;;5015316;28;20064;-48
2020/12/18 01:19:41;;;;;;;19.05;7.30;;;6.50;99.90;;;;;;5012353;28;20042;-47
2020/12/18 01:22:07;;;;;;;21.88;7.82;;;6.40;99.90;;;;;;5032838;28;20034;-48
2020/12/18 01:24:33;;;;;;;21.83;4.03;;;6.50;99.90;;;;;;5020653;28;20030;-48
2020/12/18 01:26:58;;;;;;;15.13;6.95;;;6.50;99.90;;;;;;5006642;28;20038;-47
2020/12/18 01:29:24;;;;;;;16.55;7.03;;;6.50;99.90;;;;;;5013998;28;20034;-47
2020/12/18 01:31:49;;;;;;;23.55;7.60;;;6.50;99.90;;;;;;5009598;28;20386;-48
2020/12/18 01:34:15;;;;;;;26.77;8.27;;;6.50;99.90;;;;;;5015954;28;20030;-48
2020/12/18 01:36:40;;;;;;;21.90;7.78;;;6.40;99.90;;;;;;5033258;28;20423;-48
2020/12/18 01:39:06;;;;;;;20.10;8.48;;;6.50;99.90;;;;;;5026047;28;20040;-47
2020/12/18 01:41:32;;;;;;;18.55;7.15;;;6.50;99.90;;;;;;5006870;28;20030;-47
2020/12/18 01:43:58;;;;;;;20.17;8.55;;;6.50;99.90;;;;;;5014296;28;20112;-47
2020/12/18 01:46:28;;;;;;;23.13;8.70;;;6.40;99.90;;;;;;4998170;28;20021;-46
2020/12/18 01:48:55;;;;;;;23.90;8.50;;;6.40;99.90;;;;;;5013691;28;20123;-47
2020/12/18 01:51:21;;;;;;;15.02;7.13;;;6.40;99.90;;;;;;4999638;28;20073;-47
2020/12/18 01:53:47;;;;;;;19.58;7.45;;;6.50;99.90;;;;;;5010460;28;20501;-48
2020/12/18 01:56:13;;;;;;;21.88;9.32;;;6.40;99.90;;;;;;5000813;28;20026;-47
2020/12/18 01:58:40;;;;;;;20.75;8.82;;;6.50;99.90;;;;;;5029319;28;20029;-48
2020/12/18 02:01:07;;;;;;;25.95;8.98;;;6.40;99.90;;;;;;5011145;28;20418;-48
2020/12/18 02:03:34;;;;;;;20.63;9.13;;;6.50;99.90;;;;;;5015774;28;20033;-48
2020/12/18 02:06:09;;;;;;;13.98;5.80;;;6.50;99.90;;;;;;5003649;28;20367;-48
2020/12/18 02:08:38;;;;;;;28.73;10.50;;;6.50;99.90;;;;;;5016979;28;20100;-48
2020/12/18 02:11:03;;;;;;;23.52;11.15;;;6.50;99.90;;;;;;5000970;28;20032;-48
2020/12/18 02:13:29;;;;;;;17.77;8.43;;;6.50;99.90;;;;;;5010538;28;20117;-47
2020/12/18 02:15:55;;;;;;;21.30;10.48;;;6.50;99.90;;;;;;5014967;28;20501;-48
2020/12/18 02:18:23;;;;;;;22.40;8.23;;;6.50;99.90;;;;;;5019101;28;20099;-48
2020/12/18 02:20:50;;;;;;;33.50;11.05;;;6.50;99.90;;;;;;5008569;28;20069;-48
2020/12/18 02:23:15;;;;;;;25.48;9.40;;;6.50;99.90;;;;;;5023629;28;20045;-48
2020/12/18 02:25:41;;;;;;;22.55;7.68;;;6.50;99.90;;;;;;5030931;28;20060;-48
2020/12/18 02:28:09;;;;;;;26.00;10.80;;;6.50;99.90;;;;;;5032459;28;20108;-48
2020/12/18 02:30:35;;;;;;;20.60;10.23;;;6.60;99.90;;;;;;5029956;28;20413;-48
2020/12/18 02:33:08;;;;;;;24.95;10.70;;;6.50;99.90;;;;;;5028888;28;20021;-48
2020/12/18 02:35:34;;;;;;;24.38;10.88;;;6.60;99.90;;;;;;5028872;28;20183;-47
2020/12/18 02:38:01;;;;;;;26.92;10.90;;;6.50;99.90;;;;;;5031831;28;20029;-48
2020/12/18 02:40:27;;;;;;;21.08;8.02;;;6.50;99.90;;;;;;5027323;28;20026;-48
2020/12/18 02:42:53;;;;;;;25.67;12.15;;;6.50;99.90;;;;;;5026589;28;20103;-47
2020/12/18 02:45:19;;;;;;;29.50;9.98;;;6.50;99.90;;;;;;5029208;28;20042;-47
2020/12/18 02:47:45;;;;;;;23.20;12.23;;;6.50;99.90;;;;;;5013769;28;20037;-47
2020/12/18 02:50:10;;;;;;;23.52;11.80;;;6.50;99.90;;;;;;5028954;28;20391;-47
2020/12/18 02:52:37;;;;;;;22.05;8.88;;;6.50;99.90;;;;;;5029801;28;20034;-48
2020/12/18 02:55:03;;;;;;;19.20;7.88;;;6.50;99.90;;;;;;5031329;28;20534;-48
2020/12/18 02:57:29;;;;;;;29.63;11.07;;;6.60;99.90;;;;;;5029782;28;20051;-48
2020/12/18 02:59:55;;;;;;;26.98;11.00;;;6.60;99.90;;;;;;5029800;28;20038;-47
2020/12/18 03:02:21;;;;;;;30.95;13.10;;;6.60;99.90;;;;;;5029424;28;20034;-47
2020/12/18 03:04:47;;;;;;;21.38;8.18;;;6.60;99.90;;;;;;5029353;28;20055;-48
2020/12/18 03:07:13;;;;;;;28.33;12.02;;;6.50;99.90;;;;;;5030352;28;20033;-48
2020/12/18 03:09:39;;;;;;;27.83;10.98;;;6.60;99.90;;;;;;5030347;28;20076;-47
2020/12/18 03:12:05;;;;;;;36.40;12.07;;;6.50;99.90;;;;;;5029878;28;20044;-48
2020/12/18 03:14:31;;;;;;;29.95;13.05;;;6.60;99.90;;;;;;5030368;28;20112;-47
2020/12/18 03:16:56;;;;;;;26.85;11.55;;;6.60;99.90;;;;;;5031215;28;20064;-48
2020/12/18 03:19:22;;;;;;;29.67;11.73;;;6.60;99.90;;;;;;5030450;28;20033;-48
2020/12/18 03:21:47;;;;;;;26.80;11.32;;;6.60;99.90;;;;;;5029665;28;20452;-48
2020/12/18 03:24:13;;;;;;;32.50;12.10;;;6.60;99.90;;;;;;5014502;28;20100;-48
2020/12/18 03:26:38;;;;;;;17.60;7.68;;;6.50;99.90;;;;;;5016517;28;20053;-48
2020/12/18 03:29:04;;;;;;;33.22;13.23;;;6.60;99.90;;;;;;4998384;28;20034;-47
2020/12/18 03:31:30;;;;;;;30.70;12.52;;;6.60;99.90;;;;;;5004120;28;20022;-47
2020/12/18 03:33:55;;;;;;;34.10;12.25;;;6.50;99.90;;;;;;5009857;28;20038;-47
2020/12/18 03:36:21;;;;;;;30.13;12.38;;;6.60;99.90;;;;;;5011282;28;20038;-48
2020/12/18 03:38:46;;;;;;;28.00;12.65;;;6.60;99.90;;;;;;5010509;28;20394;-48
2020/12/18 03:41:12;;;;;;;27.42;13.15;;;6.60;99.90;;;;;;5010951;28;20029;-48
2020/12/18 03:43:37;;;;;;;35.58;14.50;;;6.60;99.90;;;;;;5010958;28;20029;-48
2020/12/18 03:46:03;;;;;;;27.52;11.95;;;6.60;99.90;;;;;;5010306;28;20062;-47
2020/12/18 03:48:29;;;;;;;35.03;13.75;;;6.60;99.90;;;;;;5011005;28;20049;-47
2020/12/18 03:50:54;;;;;;;30.23;13.27;;;6.60;99.90;;;;;;5006404;28;20348;-48
2020/12/18 03:53:20;;;;;;;31.25;14.40;;;6.60;99.90;;;;;;5014258;28;20088;-48
2020/12/18 03:55:45;;;;;;;37.88;15.00;;;6.60;99.90;;;;;;5010603;28;20041;-47
2020/12/18 03:58:11;;;;;;;37.28;16.40;;;6.60;99.90;;;;;;5014861;28;20049;-48
2020/12/18 04:00:38;;;;;;;35.22;14.43;;;6.50;99.90;;;;;;5016372;28;20542;-48
2020/12/18 04:03:04;;;;;;;31.98;14.48;;;6.50;99.90;;;;;;5010619;28;20087;-48
2020/12/18 04:05:29;;;;;;;36.10;15.38;;;6.50;99.90;;;;;;5001985;28;20038;-47
2020/12/18 04:07:55;;;;;;;33.30;16.77;;;6.50;99.90;;;;;;5012587;28;20041;-37
2020/12/18 04:10:21;;;;;;;36.90;15.23;;;6.50;99.90;;;;;;5009894;28;20041;-38
2020/12/18 04:12:46;;;;;;;34.55;17.80;;;6.50;99.90;;;;;;5014880;28;20129;-37
2020/12/18 04:15:12;;;;;;;42.28;17.75;;;6.50;99.90;;;;;;5004928;28;20176;-37
2020/12/18 04:17:38;;;;;;;39.70;16.25;;;6.50;99.90;;;;;;5015122;28;20245;-38
2020/12/18 04:20:03;;;;;;;34.88;17.33;;;6.60;99.90;;;;;;4998315;28;20042;-38
2020/12/18 04:22:29;;;;;;;35.80;17.42;;;6.60;99.90;;;;;;5019893;28;20041;-37
2020/12/18 04:24:55;;;;;;;36.97;18.02;;;6.60;99.90;;;;;;5000656;28;20057;-37
2020/12/18 04:27:21;;;;;;;37.33;16.17;;;6.60;99.90;;;;;;5006821;28;20034;-37
2020/12/18 04:29:47;;;;;;;35.65;15.95;;;6.60;99.90;;;;;;5014784;28;20030;-38
2020/12/18 04:32:12;;;;;;;20.13;10.68;;;6.60;99.90;;;;;;5015706;28;20025;-37
2020/12/18 04:34:38;;;;;;;37.08;17.88;;;6.60;99.90;;;;;;4998239;28;20037;-38
2020/12/18 04:37:04;;;;;;;36.05;13.27;;;6.60;99.90;;;;;;4996258;28;20050;-36
2020/12/18 04:39:30;;;;;;;45.67;20.13;;;6.60;99.90;;;;;;4993270;28;20039;-36
2020/12/18 04:41:55;;;;;;;43.45;20.40;;;6.60;99.90;;;;;;5010284;28;20032;-37
2020/12/18 04:44:22;;;;;;;37.22;19.52;;;6.60;99.90;;;;;;5028362;28;20120;-37
2020/12/18 04:46:49;;;;;;;45.03;21.00;;;6.60;99.90;;;;;;4995171;28;20033;-37
2020/12/18 04:49:15;;;;;;;39.72;18.55;;;6.60;99.90;;;;;;5011653;28;20440;-37
2020/12/18 04:51:43;;;;;;;32.33;16.02;;;6.70;99.90;;;;;;5024024;28;20061;-37
2020/12/18 04:54:10;;;;;;;42.60;22.88;;;6.70;99.90;;;;;;5014340;28;20037;-38
2020/12/18 04:56:38;;;;;;;46.90;23.65;;;6.70;99.90;;;;;;5017523;28;20064;-37
2020/12/18 04:59:05;;;;;;;38.00;19.27;;;6.70;99.90;;;;;;4995573;28;20032;-37
2020/12/18 05:01:30;;;;;;;42.55;20.23;;;6.70;99.90;;;;;;5023543;28;20025;-37
2020/12/18 05:03:57;;;;;;;33.72;16.27;;;6.70;99.90;;;;;;5010187;28;20092;-37
2020/12/18 05:06:23;;;;;;;50.35;22.30;;;6.80;99.90;;;;;;5018353;28;20101;-36
2020/12/18 05:08:49;;;;;;;43.67;19.00;;;6.80;99.90;;;;;;5020531;28;20041;-37
2020/12/18 05:11:27;;;;;;;53.92;20.73;;;6.90;99.90;;;;;;4996528;28;20061;-37
2020/12/18 05:13:55;;;;;;;44.38;21.55;;;6.90;99.90;;;;;;5021918;28;20125;-36
2020/12/18 05:16:21;;;;;;;30.38;15.13;;;7.00;99.90;;;;;;5016293;28;20112;-36
2020/12/18 05:18:48;;;;;;;42.17;17.42;;;7.00;99.90;;;;;;5011419;28;20041;-37
2020/12/18 05:21:14;;;;;;;31.88;14.38;;;7.10;99.90;;;;;;5015063;28;20025;-37
2020/12/18 05:23:42;;;;;;;50.45;24.02;;;7.10;99.90;;;;;;5018645;28;20489;-37
2020/12/18 05:26:12;;;;;;;40.58;16.45;;;7.10;99.90;;;;;;5028239;28;20116;-37
2020/12/18 05:28:43;;;;;;;25.58;11.40;;;7.20;99.90;;;;;;5021512;28;20056;-38
2020/12/18 05:31:15;;;;;;;45.00;22.40;;;7.20;99.90;;;;;;4996829;28;20030;-36
2020/12/18 05:33:42;;;;;;;46.67;22.27;;;7.20;99.90;;;;;;4995314;28;20116;-39
2020/12/18 05:36:08;;;;;;;38.30;19.63;;;7.20;99.90;;;;;;5026537;28;20048;-37
2020/12/18 05:38:38;;;;;;;45.65;21.60;;;7.30;99.90;;;;;;4995151;28;20164;-36
2020/12/18 05:41:05;;;;;;;46.15;22.05;;;7.30;99.90;;;;;;4992261;28;20125;-37
2020/12/18 05:43:41;;;;;;;32.88;14.55;;;7.30;99.90;;;;;;5020779;28;20037;-33
2020/12/18 05:46:24;;;;;;;31.05;14.57;;;7.40;99.90;;;;;;5024259;28;20042;-38
2020/12/18 05:49:07;;;;;;;37.13;14.30;;;7.40;99.90;;;;;;5002671;28;20037;-37
2020/12/18 05:51:38;;;;;;;38.42;15.27;;;7.40;99.90;;;;;;4995890;28;20048;-37
2020/12/18 05:54:14;;;;;;;40.30;17.73;;;7.40;99.90;;;;;;5029991;28;20064;-37
2020/12/18 05:56:41;;;;;;;35.13;13.52;;;7.40;99.90;;;;;;5022980;28;20454;-37
2020/12/18 05:59:12;;;;;;;39.67;17.60;;;7.40;99.90;;;;;;5001622;28;20026;-38
2020/12/18 06:01:44;;;;;;;32.47;14.00;;;7.40;99.90;;;;;;5013947;28;20026;-37
2020/12/18 06:04:15;;;;;;;30.67;11.48;;;7.40;99.90;;;;;;4998667;28;20406;-37
2020/12/18 06:06:43;;;;;;;34.35;16.70;;;7.40;99.90;;;;;;5013452;28;20041;-37
2020/12/18 06:09:09;;;;;;;28.52;10.55;;;7.40;99.90;;;;;;5010684;28;20732;-37
2020/12/18 06:11:35;;;;;;;37.90;16.65;;;7.40;99.90;;;;;;4994558;28;20091;-37
2020/12/18 06:14:02;;;;;;;27.65;12.13;;;7.40;99.90;;;;;;5010749;28;20121;-38
2020/12/18 06:16:29;;;;;;;41.47;17.73;;;7.50;99.90;;;;;;4992448;28;20029;-38
2020/12/18 06:19:05;;;;;;;30.85;15.15;;;7.40;99.90;;;;;;5021520;28;20034;-37
2020/12/18 06:21:31;;;;;;;35.17;15.32;;;7.40;99.90;;;;;;5019271;28;20043;-34
2020/12/18 06:23:58;;;;;;;28.15;11.95;;;7.50;99.90;;;;;;5014267;28;20096;-41
2020/12/18 06:26:25;;;;;;;31.58;11.77;;;7.50;99.90;;;;;;5010164;28;20498;-39
2020/12/18 06:28:51;;;;;;;29.63;12.57;;;7.60;99.90;;;;;;5008199;28;20331;-43
2020/12/18 06:31:30;;;;;;;29.95;14.52;;;7.60;99.90;;;;;;5008455;28;20079;-38
2020/12/18 06:33:58;;;;;;;37.88;13.98;;;7.60;99.90;;;;;;5010896;28;20029;-37
2020/12/18 06:36:46;;;;;;;26.27;9.77;;;7.60;99.90;;;;;;4995656;28;20053;-34
2020/12/18 06:39:24;;;;;;;28.70;14.40;;;7.60;99.90;;;;;;5015675;28;20033;-39
2020/12/18 06:42:13;;;;;;;30.50;13.65;;;7.70;99.90;;;;;;5008506;28;20056;-33
2020/12/18 06:44:40;;;;;;;28.40;14.85;;;7.70;99.90;;;;;;5009958;28;20038;-38
2020/12/18 06:47:07;;;;;;;28.65;11.77;;;7.60;99.90;;;;;;5011007;28;20032;-38
2020/12/18 06:49:54;;;;;;;35.95;14.52;;;7.70;99.90;;;;;;4990695;28;20048;-40
2020/12/18 06:52:46;;;;;;;25.10;11.70;;;7.60;99.90;;;;;;5010680;28;20030;-36
2020/12/18 06:55:14;;;;;;;;;;;7.70;99.90;;;;;;5009682;28;20034;-38
2020/12/18 06:57:40;;;;;;;27.92;13.25;;;7.70;99.90;;;;;;5009318;28;19917;-37
2020/12/18 07:00:25;;;;;;;36.00;12.07;;;7.70;99.90;;;;;;5005739;28;20361;-49
2020/12/18 07:02:51;;;;;;;23.45;8.85;;;7.80;99.90;;;;;;5007188;28;20079;-36
2020/12/18 07:05:43;;;;;;;21.42;9.18;;;7.70;99.90;;;;;;5005514;28;20026;-36
2020/12/18 07:08:09;;;;;;;27.20;13.02;;;7.80;99.90;;;;;;5006727;28;20084;-35
2020/12/18 07:10:42;;;;;;;18.63;9.73;;;7.70;99.90;;;;;;5010721;28;20034;-48
2020/12/18 07:13:12;;;;;;;30.50;13.32;;;7.70;99.90;;;;;;5008194;28;20052;-49
2020/12/18 07:15:46;;;;;;;20.13;8.88;;;7.70;99.90;;;;;;5011234;28;20045;-48
2020/12/18 07:18:30;;;;;;;22.75;11.65;;;7.70;99.90;;;;;;5008995;28;20026;-37
2020/12/18 07:20:56;;;;;;;22.08;9.48;;;7.70;99.90;;;;;;5009617;28;20368;-35
2020/12/18 07:23:23;;;;;;;23.02;11.98;;;7.70;99.90;;;;;;5021096;28;20052;-36
2020/12/18 07:25:50;;;;;;;19.10;8.20;;;7.60;99.90;;;;;;5028703;28;20417;-35
2020/12/18 07:28:17;;;;;;;24.27;11.98;;;7.70;99.90;;;;;;5029626;28;20463;-37
2020/12/18 07:30:45;;;;;;;7.65;4.03;;;7.70;99.90;;;;;;5019686;28;20030;-37
2020/12/18 07:33:13;;;;;;;20.17;8.88;;;7.70;99.90;;;;;;5029522;28;20077;-37
2020/12/18 07:35:48;;;;;;;15.43;7.70;;;7.60;99.90;;;;;;5019658;28;20037;-36
2020/12/18 07:38:20;;;;;;;23.55;9.93;;;7.60;99.90;;;;;;5028735;28;20083;-48
2020/12/18 07:40:48;;;;;;;18.52;9.50;;;7.70;99.90;;;;;;5020804;28;20893;-35
2020/12/18 07:43:16;;;;;;;21.42;9.18;;;7.60;99.90;;;;;;5034116;28;20021;-37
2020/12/18 07:45:47;;;;;;;18.50;7.72;;;7.60;99.90;;;;;;5017435;28;20037;-39
2020/12/18 07:48:22;;;;;;;17.40;7.72;;;7.60;99.90;;;;;;5028921;28;20068;-36
2020/12/18 07:50:59;;;;;;;24.13;10.80;;;7.60;99.90;;;;;;5022006;28;20040;-38
2020/12/18 07:53:26;;;;;;;18.70;7.43;;;7.50;99.90;;;;;;5030661;28;20057;-49
2020/12/18 07:56:10;;;;;;;25.27;11.13;;;7.50;99.90;;;;;;5021370;28;20033;-37
2020/12/18 07:59:03;;;;;;;28.83;11.52;;;7.60;99.90;;;;;;5029179;28;20036;-36
2020/12/18 08:01:31;;;;;;;29.75;12.00;;;7.60;99.90;;;;;;5031164;28;20109;-37
2020/12/18 08:04:17;;;;;;;29.65;10.95;;;7.60;99.90;;;;;;5026820;28;20178;-38
2020/12/18 08:06:43;;;;;;;12.10;5.35;;;7.60;99.90;;;;;;5026010;28;20061;-36
2020/12/18 08:09:14;;;;;;;22.52;12.10;;;7.60;99.90;;;;;;5027099;28;20049;-49
2020/12/18 08:11:52;;;;;;;26.90;10.07;;;7.70;99.90;;;;;;5030398;28;20378;-39
2020/12/18 08:14:19;;;;;;;29.77;8.95;;;7.70;99.90;;;;;;5028487;28;20034;-36
2020/12/18 08:16:44;;;;;;;24.65;11.20;;;7.70;99.90;;;;;;5038190;28;20024;-38
2020/12/18 08:19:11;;;;;;;19.75;9.43;;;7.70;99.90;;;;;;5027272;28;20030;-36
2020/12/18 08:21:42;;;;;;;24.73;12.02;;;7.70;99.90;;;;;;5028233;28;20087;-35
2020/12/18 08:24:12;;;;;;;32.70;13.00;;;7.70;99.90;;;;;;5003299;28;20474;-49
2020/12/18 08:26:41;;;;;;;23.55;9.98;;;7.70;99.90;;;;;;5027161;28;20317;-36
2020/12/18 08:29:08;;;;;;;24.85;11.98;;;7.70;99.90;;;;;;5008793;28;20419;-48
2020/12/18 08:31:41;;;;;;;27.73;8.43;;;7.70;99.90;;;;;;5006912;28;20052;-36
2020/12/18 08:34:11;;;;;;;21.08;9.70;;;7.80;99.90;;;;;;5009026;28;20053;-36
2020/12/18 08:36:45;;;;;;;22.75;11.20;;;7.90;99.90;;;;;;5006953;28;20076;-38
2020/12/18 08:39:13;;;;;;;30.50;12.77;;;7.80;99.90;;;;;;5005871;28;20399;-36
2020/12/18 08:41:47;;;;;;;24.48;10.18;;;7.90;99.90;;;;;;5004496;28;20077;-49
2020/12/18 08:44:27;;;;;;;24.67;9.30;;;7.90;99.90;;;;;;5009068;28;20479;-48
2020/12/18 08:46:53;;;;;;;20.67;7.80;;;8.00;99.90;;;;;;5014458;28;20064;-36
2020/12/18 08:49:20;;;;;;;19.52;7.65;;;8.00;99.90;;;;;;5005575;28;20089;-49
2020/12/18 08:51:48;;;;;;;14.23;5.38;;;8.00;99.90;;;;;;5005848;28;20029;-48
2020/12/18 08:54:29;;;;;;;16.67;8.60;;;8.10;99.90;;;;;;5022197;28;20098;-49
2020/12/18 08:57:15;;;;;;;21.70;9.55;;;8.10;99.90;;;;;;5009641;28;20042;-49
2020/12/18 08:59:56;;;;;;;9.93;5.00;;;8.10;99.90;;;;;;5026737;28;20104;-36
2020/12/18 09:02:22;;;;;;;12.68;5.28;;;8.20;99.90;;;;;;5012015;28;20113;-48
2020/12/18 09:05:25;;;;;;;19.08;8.65;;;8.20;99.90;;;;;;5012601;28;20462;-36
2020/12/18 09:07:56;;;;;;;16.38;5.53;;;8.20;99.90;;;;;;5025803;28;20038;-47
2020/12/18 09:10:39;;;;;;;13.20;7.40;;;8.30;99.90;;;;;;5008318;28;20034;-48
2020/12/18 09:13:37;;;;;;;15.70;6.80;;;8.30;99.90;;;;;;5006430;28;20122;-49
2020/12/18 09:16:09;;;;;;;24.48;8.77;;;8.40;99.90;;;;;;4962974;28;20081;-37
2020/12/18 09:18:38;;;;;;;;;;;8.40;99.90;;;;;;4961138;28;20043;-36
2020/12/18 09:21:17;;;;;;;8.60;4.32;;;8.50;99.90;;;;;;4954963;28;20331;-48
2020/12/18 09:23:46;;;;;;;7.72;3.53;;;8.60;99.90;;;;;;4950636;28;20078;-36
2020/12/18 09:26:21;;;;;;;21.15;6.97;;;8.70;99.90;;;;;;4959251;28;20087;-36
2020/12/18 09:28:47;;;;;;;12.23;5.85;;;8.70;99.90;;;;;;4976468;28;20423;-36
2020/12/18 09:31:12;;;;;;;19.63;9.02;;;8.80;99.90;;;;;;4978737;28;20031;-37
2020/12/18 09:33:39;;;;;;;13.82;5.50;;;8.80;99.90;;;;;;4971939;28;20489;-37
2020/12/18 09:36:10;;;;;;;22.00;8.18;;;8.90;99.90;;;;;;4962609;28;20128;-36
2020/12/18 09:38:37;;;;;;;;;;;9.00;99.90;;;;;;4951204;28;20061;-37
2020/12/18 09:41:23;;;;;;;21.50;8.93;;;9.10;99.90;;;;;;4992904;28;19912;-36
2020/12/18 09:43:49;;;;;;;18.35;7.13;;;9.10;99.90;;;;;;4972729;28;20025;-36
2020/12/18 09:46:18;;;;;;;17.85;7.47;;;9.10;99.90;;;;;;4987580;28;20078;-47
2020/12/18 09:48:45;;;;;;;26.00;8.55;;;9.10;99.90;;;;;;4977181;28;20340;-49
2020/12/18 09:51:11;;;;;;;20.52;7.82;;;9.00;99.90;;;;;;4972433;28;20193;-36
2020/12/18 09:53:37;;;;;;;16.98;8.43;;;9.10;99.90;;;;;;5024290;28;20552;-37
2020/12/18 09:56:03;;;;;;;12.75;5.18;;;9.10;99.90;;;;;;5031134;28;20116;-49
2020/12/18 09:58:29;;;;;;;11.60;5.70;;;9.20;99.90;;;;;;5023315;28;20037;-36
2020/12/18 10:00:55;;;;;;;16.55;7.97;;;9.20;99.90;;;;;;5021451;28;20034;-36
2020/12/18 10:03:20;;;;;;;21.15;6.43;;;9.20;99.90;;;;;;5031734;28;20113;-36
2020/12/18 10:05:46;;;;;;;15.00;6.85;;;9.30;99.90;;;;;;5023438;28;20127;-36
2020/12/18 10:08:12;;;;;;;17.85;6.20;;;9.30;99.90;;;;;;5024107;28;20038;-48
2020/12/18 10:10:38;;;;;;;15.55;6.28;;;9.30;99.90;;;;;;5032934;28;20029;-37
2020/12/18 10:13:03;;;;;;;11.30;4.13;;;9.30;99.90;;;;;;5029946;28;20502;-48
2020/12/18 10:15:29;;;;;;;19.13;6.03;;;9.40;99.90;;;;;;5029226;28;20394;-36
2020/12/18 10:17:55;;;;;;;12.57;6.25;;;9.40;99.90;;;;;;5029182;28;20112;-38
2020/12/18 10:20:21;;;;;;;16.92;4.20;;;9.40;99.90;;;;;;5024777;28;20029;-36
2020/12/18 10:22:47;;;;;;;15.77;5.78;;;9.50;99.90;;;;;;5022089;28;20136;-36
2020/12/18 10:25:12;;;;;;;8.25;2.92;;;9.50;99.90;;;;;;5027521;28;20453;-36
2020/12/18 10:27:38;;;;;;;16.30;6.63;;;9.50;99.90;;;;;;5020954;28;20037;-37
2020/12/18 10:30:06;;;;;;;11.30;4.40;;;9.60;99.90;;;;;;5024438;28;20636;-36
2020/12/18 10:32:33;;;;;;;11.75;5.97;;;9.60;99.90;;;;;;5027812;28;20033;-35
2020/12/18 10:34:58;;;;;;;7.35;4.05;;;9.60;99.90;;;;;;5028020;28;20394;-36
2020/12/18 10:37:25;;;;;;;12.88;5.40;;;9.70;99.90;;;;;;5021516;28;20022;-37
2020/12/18 10:39:50;;;;;;;14.32;5.22;;;9.80;99.90;;;;;;5021802;28;20025;-36
2020/12/18 10:42:16;;;;;;;21.25;6.93;;;9.80;99.90;;;;;;5028164;28;20390;-36
2020/12/18 10:44:42;;;;;;;9.65;4.63;;;9.90;99.90;;;;;;5027650;28;20193;-49
2020/12/18 10:47:08;;;;;;;12.35;4.72;;;9.90;99.90;;;;;;5009656;28;20463;-48
2020/12/18 10:49:33;;;;;;;15.18;6.07;;;9.90;99.90;;;;;;5027124;28;20025;-47
2020/12/18 10:51:59;;;;;;;13.43;4.32;;;9.90;99.90;;;;;;5029310;28;20080;-47
2020/12/18 10:54:24;;;;;;;16.65;5.53;;;9.80;99.90;;;;;;5029486;28;20112;-48
2020/12/18 10:56:51;;;;;;;13.27;5.13;;;9.80;99.90;;;;;;5025608;28;20064;-48
2020/12/18 10:59:17;;;;;;;14.32;5.90;;;9.90;99.90;;;;;;5024602;28;20155;-48
2020/12/18 11:01:45;;;;;;;12.45;4.40;;;9.90;99.90;;;;;;5028875;28;20455;-46
2020/12/18 11:04:10;;;;;;;19.02;5.45;;;10.00;99.90;;;;;;5027956;28;20154;-48
2020/12/18 11:06:40;;;;;;;4.68;2.65;;;10.10;99.90;;;;;;5026170;28;20191;-47
2020/12/18 11:09:06;;;;;;;9.77;4.18;;;10.00;99.90;;;;;;5029087;28;20076;-48
2020/12/18 11:11:31;;;;;;;13.63;5.68;;;10.00;99.90;;;;;;5041592;28;20072;-47
2020/12/18 11:13:57;;;;;;;9.50;3.38;;;10.10;99.90;;;;;;5034741;28;20040;-48
2020/12/18 11:16:23;;;;;;;19.52;4.80;;;10.10;99.90;;;;;;5030322;28;20033;-48
2020/12/18 11:18:49;;;;;;;8.02;3.55;;;10.10;99.90;;;;;;5026473;28;20592;-48
2020/12/18 11:21:15;;;;;;;9.25;3.03;;;10.10;99.90;;;;;;5006869;28;20033;-46
2020/12/18 11:23:41;;;;;;;15.80;5.65;;;10.10;99.90;;;;;;5030386;28;20037;-49
2020/12/18 11:26:06;;;;;;;12.65;4.53;;;10.20;99.90;;;;;;5010284;28;20077;-48
2020/12/18 11:28:32;;;;;;;10.93;4.43;;;10.10;99.90;;;;;;5030895;28;20103;-48
2020/12/18 11:30:59;;;;;;;12.10;4.15;;;10.20;99.90;;;;;;5026588;28;20037;-47
2020/12/18 11:33:25;;;;;;;14.25;3.75;;;10.20;99.90;;;;;;5029961;28;20025;-47
2020/12/18 11:35:51;;;;;;;9.18;3.97;;;10.20;99.90;;;;;;5025772;28;20048;-48
2020/12/18 11:38:16;;;;;;;13.55;4.30;;;10.20;99.90;;;;;;5026468;28;20041;-48
2020/12/18 11:40:42;;;;;;;9.32;3.65;;;10.30;99.90;;;;;;5038167;28;20033;-48
2020/12/18 11:43:07;;;;;;;11.98;4.65;;;10.30;99.90;;;;;;5029867;28;20475;-47
2020/12/18 11:45:33;;;;;;;16.20;3.25;;;10.30;99.90;;;;;;5027830;28;20128;-47
2020/12/18 11:47:59;;;;;;;11.50;3.97;;;10.30;99.90;;;;;;5043891;28;20026;-47
2020/12/18 11:50:28;;;;;;;10.63;4.28;;;10.30;99.90;;;;;;5043435;28;20026;-48
2020/12/18 11:52:54;;;;;;;8.93;3.25;;;10.30;99.90;;;;;;5027420;28;20057;-48
2020/12/18 11:55:20;;;;;;;9.55;4.57;;;10.30;99.90;;;;;;5030587;28;20033;-48
2020/12/18 11:57:45;;;;;;;11.90;4.43;;;10.30;99.90;;;;;;5031291;28;20038;-48
2020/12/18 12:00:11;;;;;;;7.70;3.13;;;10.30;99.90;;;;;;5039979;28;20044;-48
2020/12/18 12:02:37;;;;;;;10.55;4.88;;;10.40;99.90;;;;;;5045490;28;20025;-49
2020/12/18 12:05:03;;;;;;;8.30;3.72;;;10.40;99.90;;;;;;5019352;28;20091;-48
2020/12/18 12:07:30;;;;;;;5.50;2.33;;;10.40;99.90;;;;;;5007073;28;20041;-48
2020/12/18 12:09:57;;;;;;;11.77;2.83;;;10.40;99.90;;;;;;5012653;28;20054;-48
2020/12/18 12:12:24;;;;;;;9.75;3.75;;;10.40;99.90;;;;;;5014356;28;20033;-48
2020/12/18 12:14:51;;;;;;;7.22;1.63;;;10.40;99.90;;;;;;5014828;28;20045;-48
2020/12/18 12:17:17;;;;;;;10.13;3.17;;;10.40;99.90;;;;;;4996703;28;20034;-48
2020/12/18 12:19:44;;;;;;;13.48;3.22;;;10.30;99.90;;;;;;5012181;28;20137;-47
2020/12/18 12:22:10;;;;;;;6.63;2.97;;;10.30;99.90;;;;;;5011888;28;20067;-48
2020/12/18 12:24:42;;;;;;;9.90;3.28;;;10.30;99.90;;;;;;5012580;28;20084;-48
2020/12/18 12:27:11;;;;;;;14.15;3.75;;;10.20;99.90;;;;;;5031716;28;20052;-48
2020/12/18 12:29:38;;;;;;;7.95;2.72;;;10.20;99.90;;;;;;5029796;28;20079;-47
2020/12/18 12:32:06;;;;;;;10.57;3.00;;;10.20;99.90;;;;;;5031278;28;20483;-48
2020/12/18 12:34:32;;;;;;;11.10;2.90;;;10.30;99.90;;;;;;5012464;28;20044;-48
2020/12/18 12:36:59;;;;;;;11.25;2.90;;;10.30;99.90;;;;;;5024267;28;20440;-35
2020/12/18 12:39:25;;;;;;;7.55;2.58;;;10.30;99.90;;;;;;5020116;28;20501;-36
2020/12/18 12:41:52;;;;;;;10.93;2.67;;;10.30;99.90;;;;;;5030388;28;20030;-35
2020/12/18 12:44:18;;;;;;;7.13;1.90;;;10.30;99.90;;;;;;5027251;28;20029;-36
2020/12/18 12:46:44;;;;;;;13.23;2.90;;;10.30;99.90;;;;;;5029929;28;20498;-35
2020/12/18 12:49:10;;;;;;;10.57;2.33;;;10.30;99.90;;;;;;5009365;28;20069;-35